sensor_id;sensor_type;location;lat;lon;timestamp;pressure;altitude;pressure_sealevel;temperature;humidity
38197;BME280;26543;51.976;4.616;2023-02-04T00:01:28;53129.53;;;-140.72;100.00
38197;BME280;26543;51.976;4.616;2023-02-04T00:03:53;53133.59;;;-140.72;100.00
38197;BME280;26543;51.976;4.616;2023-02-04T00:06:19;53151.84;;;-140.72;100.00
38197;BME280;26543;51.976;4.616;2023-02-04T00:08:44;53086.91;;;-140.72;100.00
38197;BME280;26543;51.976;4.616;2023-02-04T00:11:09;53117.34;;;-140.72;100.00
38197;BME280;26543;51.976;4.616;2023-02-04T00:13:35;53097.06;;;-140.72;100.00
38197;BME280;26543;51.976;4.616;2023-02-04T00:16:00;53095.03;;;-140.72;100.00
38197;BME280;26543;51.976;4.616;2023-02-04T00:18:28;53143.72;;;-140.72;100.00
38197;BME280;26543;51.976;4.616;2023-02-04T00:20:54;53109.22;;;-140.72;100.00
38197;BME280;26543;51.976;4.616;2023-02-04T00:23:20;53088.94;;;-140.72;100.00
38197;BME280;26543;51.976;4.616;2023-02-04T00:25:45;53117.34;;;-140.72;100.00
38197;BME280;26543;51.976;4.616;2023-02-04T00:28:10;53129.53;;;-140.72;100.00
38197;BME280;26543;51.976;4.616;2023-02-04T00:30:36;53147.78;;;-140.72;100.00
38197;BME280;26543;51.976;4.616;2023-02-04T00:33:01;53170.13;;;-140.72;100.00
38197;BME280;26543;51.976;4.616;2023-02-04T00:35:27;53127.50;;;-140.72;100.00
38197;BME280;26543;51.976;4.616;2023-02-04T00:37:52;53133.59;;;-140.72;100.00
38197;BME280;26543;51.976;4.616;2023-02-04T00:40:18;53117.34;;;-140.72;100.00
38197;BME280;26543;51.976;4.616;2023-02-04T00:42:44;53129.53;;;-140.72;100.00
38197;BME280;26543;51.976;4.616;2023-02-04T00:45:10;53135.63;;;-140.72;100.00
38197;BME280;26543;51.976;4.616;2023-02-04T00:47:36;53159.97;;;-140.72;100.00
38197;BME280;26543;51.976;4.616;2023-02-04T00:50:02;53117.34;;;-140.72;100.00
38197;BME280;26543;51.976;4.616;2023-02-04T00:52:27;53157.94;;;-140.72;100.00
38197;BME280;26543;51.976;4.616;2023-02-04T00:54:56;53155.91;;;-140.72;100.00
38197;BME280;26543;51.976;4.616;2023-02-04T00:57:21;53113.28;;;-140.72;100.00
38197;BME280;26543;51.976;4.616;2023-02-04T00:59:48;53088.94;;;-140.72;100.00
38197;BME280;26543;51.976;4.616;2023-02-04T01:02:13;53105.19;;;-140.72;100.00
38197;BME280;26543;51.976;4.616;2023-02-04T01:04:38;53137.66;;;-140.72;100.00
38197;BME280;26543;51.976;4.616;2023-02-04T01:07:04;53137.66;;;-140.72;100.00
38197;BME280;26543;51.976;4.616;2023-02-04T01:09:30;53129.53;;;-140.72;100.00
38197;BME280;26543;51.976;4.616;2023-02-04T01:11:55;53109.22;;;-140.72;100.00
38197;BME280;26543;51.976;4.616;2023-02-04T01:14:23;53153.88;;;-140.72;100.00
38197;BME280;26543;51.976;4.616;2023-02-04T01:16:48;53141.69;;;-140.72;100.00
38197;BME280;26543;51.976;4.616;2023-02-04T01:19:14;53145.75;;;-140.72;100.00
38197;BME280;26543;51.976;4.616;2023-02-04T01:21:39;53133.59;;;-140.72;100.00
38197;BME280;26543;51.976;4.616;2023-02-04T01:24:04;53135.63;;;-140.72;100.00
38197;BME280;26543;51.976;4.616;2023-02-04T01:26:30;53149.81;;;-140.72;100.00
38197;BME280;26543;51.976;4.616;2023-02-04T01:28:55;53117.34;;;-140.72;100.00
38197;BME280;26543;51.976;4.616;2023-02-04T01:31:21;53170.13;;;-140.72;100.00
38197;BME280;26543;51.976;4.616;2023-02-04T01:33:46;53168.09;;;-140.72;100.00
38197;BME280;26543;51.976;4.616;2023-02-04T01:36:11;53135.63;;;-140.72;100.00
38197;BME280;26543;51.976;4.616;2023-02-04T01:38:37;53157.94;;;-140.72;100.00
38197;BME280;26543;51.976;4.616;2023-02-04T01:41:03;53107.19;;;-140.72;100.00
38197;BME280;26543;51.976;4.616;2023-02-04T01:43:29;53113.28;;;-140.72;100.00
38197;BME280;26543;51.976;4.616;2023-02-04T01:45:55;53113.28;;;-140.72;100.00
38197;BME280;26543;51.976;4.616;2023-02-04T01:48:21;53133.59;;;-140.72;100.00
38197;BME280;26543;51.976;4.616;2023-02-04T01:50:49;53117.34;;;-140.72;100.00
38197;BME280;26543;51.976;4.616;2023-02-04T01:53:20;53125.47;;;-140.72;100.00
38197;BME280;26543;51.976;4.616;2023-02-04T01:55:46;53129.53;;;-140.72;100.00
38197;BME280;26543;51.976;4.616;2023-02-04T01:58:12;53149.81;;;-140.72;100.00
38197;BME280;26543;51.976;4.616;2023-02-04T02:00:38;53145.75;;;-140.72;100.00
38197;BME280;26543;51.976;4.616;2023-02-04T02:03:05;53135.63;;;-140.72;100.00
38197;BME280;26543;51.976;4.616;2023-02-04T02:05:52;53123.44;;;-140.72;100.00
38197;BME280;26543;51.976;4.616;2023-02-04T02:08:19;53153.88;;;-140.72;100.00
38197;BME280;26543;51.976;4.616;2023-02-04T02:10:49;53117.34;;;-140.72;100.00
38197;BME280;26543;51.976;4.616;2023-02-04T02:13:16;53139.69;;;-140.72;100.00
38197;BME280;26543;51.976;4.616;2023-02-04T02:15:42;53121.41;;;-140.72;100.00
38197;BME280;26543;51.976;4.616;2023-02-04T02:18:09;53166.06;;;-140.72;100.00
38197;BME280;26543;51.976;4.616;2023-02-04T02:20:34;53164.03;;;-140.72;100.00
38197;BME280;26543;51.976;4.616;2023-02-04T02:23:13;53168.09;;;-140.72;100.00
38197;BME280;26543;51.976;4.616;2023-02-04T02:25:40;53109.22;;;-140.72;100.00
38197;BME280;26543;51.976;4.616;2023-02-04T02:28:09;53137.66;;;-140.72;100.00
38197;BME280;26543;51.976;4.616;2023-02-04T02:30:35;53143.72;;;-140.72;100.00
38197;BME280;26543;51.976;4.616;2023-02-04T02:33:01;53159.97;;;-140.72;100.00
38197;BME280;26543;51.976;4.616;2023-02-04T02:35:27;53133.59;;;-140.72;100.00
38197;BME280;26543;51.976;4.616;2023-02-04T02:37:52;53151.84;;;-140.72;100.00
38197;BME280;26543;51.976;4.616;2023-02-04T02:40:18;53178.22;;;-140.72;100.00
38197;BME280;26543;51.976;4.616;2023-02-04T02:42:47;53153.88;;;-140.72;100.00
38197;BME280;26543;51.976;4.616;2023-02-04T02:45:22;53131.56;;;-140.72;100.00
38197;BME280;26543;51.976;4.616;2023-02-04T02:47:49;53139.69;;;-140.72;100.00
38197;BME280;26543;51.976;4.616;2023-02-04T02:50:19;53168.09;;;-140.72;100.00
38197;BME280;26543;51.976;4.616;2023-02-04T02:52:45;53149.81;;;-140.72;100.00
38197;BME280;26543;51.976;4.616;2023-02-04T02:55:16;53182.28;;;-140.72;100.00
38197;BME280;26543;51.976;4.616;2023-02-04T02:57:44;53145.75;;;-140.72;100.00
38197;BME280;26543;51.976;4.616;2023-02-04T03:00:16;53137.66;;;-140.72;100.00
38197;BME280;26543;51.976;4.616;2023-02-04T03:02:42;53141.69;;;-140.72;100.00
38197;BME280;26543;51.976;4.616;2023-02-04T03:05:08;53162.00;;;-140.72;100.00
38197;BME280;26543;51.976;4.616;2023-02-04T03:07:34;53168.09;;;-140.72;100.00
38197;BME280;26543;51.976;4.616;2023-02-04T03:09:59;53141.69;;;-140.72;100.00
38197;BME280;26543;51.976;4.616;2023-02-04T03:12:25;53125.47;;;-140.72;100.00
38197;BME280;26543;51.976;4.616;2023-02-04T03:14:50;53164.03;;;-140.72;100.00
38197;BME280;26543;51.976;4.616;2023-02-04T03:17:16;53123.44;;;-140.72;100.00
38197;BME280;26543;51.976;4.616;2023-02-04T03:19:42;53129.53;;;-140.72;100.00
38197;BME280;26543;51.976;4.616;2023-02-04T03:22:07;53131.56;;;-140.72;100.00
38197;BME280;26543;51.976;4.616;2023-02-04T03:24:34;53159.97;;;-140.72;100.00
38197;BME280;26543;51.976;4.616;2023-02-04T03:27:03;53170.13;;;-140.72;100.00
38197;BME280;26543;51.976;4.616;2023-02-04T03:29:28;53129.53;;;-140.72;100.00
38197;BME280;26543;51.976;4.616;2023-02-04T03:31:54;53147.78;;;-140.72;100.00
38197;BME280;26543;51.976;4.616;2023-02-04T03:34:21;53174.19;;;-140.72;100.00
38197;BME280;26543;51.976;4.616;2023-02-04T03:36:47;53174.19;;;-140.72;100.00
38197;BME280;26543;51.976;4.616;2023-02-04T03:39:13;53141.69;;;-140.72;100.00
38197;BME280;26543;51.976;4.616;2023-02-04T03:41:41;53129.53;;;-140.72;100.00
38197;BME280;26543;51.976;4.616;2023-02-04T03:44:07;53170.13;;;-140.72;100.00
38197;BME280;26543;51.976;4.616;2023-02-04T03:46:32;53157.94;;;-140.72;100.00
38197;BME280;26543;51.976;4.616;2023-02-04T03:48:58;53137.66;;;-140.72;100.00
38197;BME280;26543;51.976;4.616;2023-02-04T03:51:23;53145.75;;;-140.72;100.00
38197;BME280;26543;51.976;4.616;2023-02-04T03:53:49;53109.22;;;-140.72;100.00
38197;BME280;26543;51.976;4.616;2023-02-04T03:56:14;53157.94;;;-140.72;100.00
38197;BME280;26543;51.976;4.616;2023-02-04T03:58:42;53155.91;;;-140.72;100.00
38197;BME280;26543;51.976;4.616;2023-02-04T04:01:08;53214.78;;;-140.72;100.00
38197;BME280;26543;51.976;4.616;2023-02-04T04:03:33;53149.81;;;-140.72;100.00
38197;BME280;26543;51.976;4.616;2023-02-04T04:05:59;53153.88;;;-140.72;100.00
38197;BME280;26543;51.976;4.616;2023-02-04T04:08:24;53149.81;;;-140.72;100.00
38197;BME280;26543;51.976;4.616;2023-02-04T04:10:50;53202.59;;;-140.72;100.00
38197;BME280;26543;51.976;4.616;2023-02-04T04:13:15;53174.19;;;-140.72;100.00
38197;BME280;26543;51.976;4.616;2023-02-04T04:15:40;53162.00;;;-140.72;100.00
38197;BME280;26543;51.976;4.616;2023-02-04T04:18:06;53162.00;;;-140.72;100.00
38197;BME280;26543;51.976;4.616;2023-02-04T04:20:31;53157.94;;;-140.72;100.00
38197;BME280;26543;51.976;4.616;2023-02-04T04:22:56;53186.34;;;-140.72;100.00
38197;BME280;26543;51.976;4.616;2023-02-04T04:25:22;53153.88;;;-140.72;100.00
38197;BME280;26543;51.976;4.616;2023-02-04T04:27:47;53184.31;;;-140.72;100.00
38197;BME280;26543;51.976;4.616;2023-02-04T04:30:12;53174.19;;;-140.72;100.00
38197;BME280;26543;51.976;4.616;2023-02-04T04:32:38;53190.41;;;-140.72;100.00
38197;BME280;26543;51.976;4.616;2023-02-04T04:35:03;53164.03;;;-140.72;100.00
38197;BME280;26543;51.976;4.616;2023-02-04T04:37:29;53176.22;;;-140.72;100.00
38197;BME280;26543;51.976;4.616;2023-02-04T04:39:54;53157.94;;;-140.72;100.00
38197;BME280;26543;51.976;4.616;2023-02-04T04:42:20;53133.59;;;-140.72;100.00
38197;BME280;26543;51.976;4.616;2023-02-04T04:44:48;53159.97;;;-140.72;100.00
38197;BME280;26543;51.976;4.616;2023-02-04T04:47:13;53137.66;;;-140.72;100.00
38197;BME280;26543;51.976;4.616;2023-02-04T04:49:39;53168.09;;;-140.72;100.00
38197;BME280;26543;51.976;4.616;2023-02-04T04:52:04;53174.19;;;-140.72;100.00
38197;BME280;26543;51.976;4.616;2023-02-04T04:54:29;53139.69;;;-140.72;100.00
38197;BME280;26543;51.976;4.616;2023-02-04T04:56:55;53147.78;;;-140.72;100.00
38197;BME280;26543;51.976;4.616;2023-02-04T04:59:20;53198.53;;;-140.72;100.00
38197;BME280;26543;51.976;4.616;2023-02-04T05:01:46;53180.25;;;-140.72;100.00
38197;BME280;26543;51.976;4.616;2023-02-04T05:04:11;53174.19;;;-140.72;100.00
38197;BME280;26543;51.976;4.616;2023-02-04T05:06:36;53174.19;;;-140.72;100.00
38197;BME280;26543;51.976;4.616;2023-02-04T05:09:02;53153.88;;;-140.72;100.00
38197;BME280;26543;51.976;4.616;2023-02-04T05:11:27;53151.84;;;-140.72;100.00
38197;BME280;26543;51.976;4.616;2023-02-04T05:13:52;53174.19;;;-140.72;100.00
38197;BME280;26543;51.976;4.616;2023-02-04T05:16:18;53135.63;;;-140.72;100.00
38197;BME280;26543;51.976;4.616;2023-02-04T05:18:43;53129.53;;;-140.72;100.00
38197;BME280;26543;51.976;4.616;2023-02-04T05:21:09;53186.34;;;-140.72;100.00
38197;BME280;26543;51.976;4.616;2023-02-04T05:23:34;53180.25;;;-140.72;100.00
38197;BME280;26543;51.976;4.616;2023-02-04T05:26:00;53129.53;;;-140.72;100.00
38197;BME280;26543;51.976;4.616;2023-02-04T05:28:25;53143.72;;;-140.72;100.00
38197;BME280;26543;51.976;4.616;2023-02-04T05:30:53;53147.78;;;-140.72;100.00
38197;BME280;26543;51.976;4.616;2023-02-04T05:33:19;53147.78;;;-140.72;100.00
38197;BME280;26543;51.976;4.616;2023-02-04T05:35:44;53162.00;;;-140.72;100.00
38197;BME280;26543;51.976;4.616;2023-02-04T05:38:09;53166.06;;;-140.72;100.00
38197;BME280;26543;51.976;4.616;2023-02-04T05:40:35;53159.97;;;-140.72;100.00
38197;BME280;26543;51.976;4.616;2023-02-04T05:43:00;53153.88;;;-140.72;100.00
38197;BME280;26543;51.976;4.616;2023-02-04T05:45:25;53162.00;;;-140.72;100.00
38197;BME280;26543;51.976;4.616;2023-02-04T05:47:51;53164.03;;;-140.72;100.00
38197;BME280;26543;51.976;4.616;2023-02-04T05:50:17;53141.69;;;-140.72;100.00
38197;BME280;26543;51.976;4.616;2023-02-04T05:52:42;53129.53;;;-140.72;100.00
38197;BME280;26543;51.976;4.616;2023-02-04T05:55:10;53147.78;;;-140.72;100.00
38197;BME280;26543;51.976;4.616;2023-02-04T05:57:35;53149.81;;;-140.72;100.00
38197;BME280;26543;51.976;4.616;2023-02-04T06:00:01;53125.47;;;-140.72;100.00
38197;BME280;26543;51.976;4.616;2023-02-04T06:02:26;53162.00;;;-140.72;100.00
38197;BME280;26543;51.976;4.616;2023-02-04T06:04:52;53166.06;;;-140.72;100.00
38197;BME280;26543;51.976;4.616;2023-02-04T06:07:17;53139.69;;;-140.72;100.00
38197;BME280;26543;51.976;4.616;2023-02-04T06:09:42;53149.81;;;-140.72;100.00
38197;BME280;26543;51.976;4.616;2023-02-04T06:12:09;53149.81;;;-140.72;100.00
38197;BME280;26543;51.976;4.616;2023-02-04T06:14:34;53176.22;;;-140.72;100.00
38197;BME280;26543;51.976;4.616;2023-02-04T06:17:00;53174.19;;;-140.72;100.00
38197;BME280;26543;51.976;4.616;2023-02-04T06:19:25;53164.03;;;-140.72;100.00
38197;BME280;26543;51.976;4.616;2023-02-04T06:21:51;53105.19;;;-140.72;100.00
38197;BME280;26543;51.976;4.616;2023-02-04T06:24:16;53157.94;;;-140.72;100.00
38197;BME280;26543;51.976;4.616;2023-02-04T06:26:41;53178.22;;;-140.72;100.00
38197;BME280;26543;51.976;4.616;2023-02-04T06:29:07;53153.88;;;-140.72;100.00
38197;BME280;26543;51.976;4.616;2023-02-04T06:31:32;53157.94;;;-140.72;100.00
38197;BME280;26543;51.976;4.616;2023-02-04T06:33:58;53162.00;;;-140.72;100.00
38197;BME280;26543;51.976;4.616;2023-02-04T06:36:24;53131.56;;;-140.72;100.00
38197;BME280;26543;51.976;4.616;2023-02-04T06:38:49;53153.88;;;-140.72;100.00
38197;BME280;26543;51.976;4.616;2023-02-04T06:41:14;53157.94;;;-140.72;100.00
38197;BME280;26543;51.976;4.616;2023-02-04T06:43:40;53145.75;;;-140.72;100.00
38197;BME280;26543;51.976;4.616;2023-02-04T06:46:05;53123.44;;;-140.72;100.00
38197;BME280;26543;51.976;4.616;2023-02-04T06:48:30;53151.84;;;-140.72;100.00
38197;BME280;26543;51.976;4.616;2023-02-04T06:50:56;53200.56;;;-140.72;100.00
38197;BME280;26543;51.976;4.616;2023-02-04T06:53:21;53125.47;;;-140.72;100.00
38197;BME280;26543;51.976;4.616;2023-02-04T06:55:47;53137.66;;;-140.72;100.00
38197;BME280;26543;51.976;4.616;2023-02-04T06:58:12;53145.75;;;-140.72;100.00
38197;BME280;26543;51.976;4.616;2023-02-04T07:00:38;53141.69;;;-140.72;100.00
38197;BME280;26543;51.976;4.616;2023-02-04T07:03:03;53157.94;;;-140.72;100.00
38197;BME280;26543;51.976;4.616;2023-02-04T07:05:29;53125.47;;;-140.72;100.00
38197;BME280;26543;51.976;4.616;2023-02-04T07:07:55;53149.81;;;-140.72;100.00
38197;BME280;26543;51.976;4.616;2023-02-04T07:10:20;53155.91;;;-140.72;100.00
38197;BME280;26543;51.976;4.616;2023-02-04T07:12:46;53194.47;;;-140.72;100.00
38197;BME280;26543;51.976;4.616;2023-02-04T07:15:11;53162.00;;;-140.72;100.00
38197;BME280;26543;51.976;4.616;2023-02-04T07:17:36;53143.72;;;-140.72;100.00
38197;BME280;26543;51.976;4.616;2023-02-04T07:20:02;53115.31;;;-140.72;100.00
38197;BME280;26543;51.976;4.616;2023-02-04T07:22:28;53151.84;;;-140.72;100.00
38197;BME280;26543;51.976;4.616;2023-02-04T07:24:53;53121.41;;;-140.72;100.00
38197;BME280;26543;51.976;4.616;2023-02-04T07:27:18;53155.91;;;-140.72;100.00
38197;BME280;26543;51.976;4.616;2023-02-04T07:29:44;53162.00;;;-140.72;100.00
38197;BME280;26543;51.976;4.616;2023-02-04T07:32:09;53145.75;;;-140.72;100.00
38197;BME280;26543;51.976;4.616;2023-02-04T07:34:34;53182.28;;;-140.72;100.00
38197;BME280;26543;51.976;4.616;2023-02-04T07:37:00;53149.81;;;-140.72;100.00
38197;BME280;26543;51.976;4.616;2023-02-04T07:39:25;53147.78;;;-140.72;100.00
38197;BME280;26543;51.976;4.616;2023-02-04T07:41:51;53119.38;;;-140.72;100.00
38197;BME280;26543;51.976;4.616;2023-02-04T07:44:16;53135.63;;;-140.72;100.00
38197;BME280;26543;51.976;4.616;2023-02-04T07:46:41;53121.41;;;-140.72;100.00
38197;BME280;26543;51.976;4.616;2023-02-04T07:49:13;53139.69;;;-140.72;100.00
38197;BME280;26543;51.976;4.616;2023-02-04T07:51:38;53145.75;;;-140.72;100.00
38197;BME280;26543;51.976;4.616;2023-02-04T07:54:04;53139.69;;;-140.72;100.00
38197;BME280;26543;51.976;4.616;2023-02-04T07:56:29;53143.72;;;-140.72;100.00
38197;BME280;26543;51.976;4.616;2023-02-04T07:58:55;53095.03;;;-140.72;100.00
38197;BME280;26543;51.976;4.616;2023-02-04T08:01:21;53111.25;;;-140.72;100.00
38197;BME280;26543;51.976;4.616;2023-02-04T08:03:47;53170.13;;;-140.72;100.00
38197;BME280;26543;51.976;4.616;2023-02-04T08:06:15;53121.41;;;-140.72;100.00
38197;BME280;26543;51.976;4.616;2023-02-04T08:08:40;53141.69;;;-140.72;100.00
38197;BME280;26543;51.976;4.616;2023-02-04T08:11:06;53137.66;;;-140.72;100.00
38197;BME280;26543;51.976;4.616;2023-02-04T08:13:31;53137.66;;;-140.72;100.00
38197;BME280;26543;51.976;4.616;2023-02-04T08:15:56;53125.47;;;-140.72;100.00
38197;BME280;26543;51.976;4.616;2023-02-04T08:18:22;53123.44;;;-140.72;100.00
38197;BME280;26543;51.976;4.616;2023-02-04T08:20:49;53170.13;;;-140.72;100.00
38197;BME280;26543;51.976;4.616;2023-02-04T08:23:14;53113.28;;;-140.72;100.00
38197;BME280;26543;51.976;4.616;2023-02-04T08:25:40;53113.28;;;-140.72;100.00
38197;BME280;26543;51.976;4.616;2023-02-04T08:28:05;53133.59;;;-140.72;100.00
38197;BME280;26543;51.976;4.616;2023-02-04T08:30:30;53139.69;;;-140.72;100.00
38197;BME280;26543;51.976;4.616;2023-02-04T08:32:56;53111.25;;;-140.72;100.00
38197;BME280;26543;51.976;4.616;2023-02-04T08:35:21;53107.19;;;-140.72;100.00
38197;BME280;26543;51.976;4.616;2023-02-04T08:37:50;53117.34;;;-140.72;100.00
38197;BME280;26543;51.976;4.616;2023-02-04T08:40:16;53133.59;;;-140.72;100.00
38197;BME280;26543;51.976;4.616;2023-02-04T08:42:42;53123.44;;;-140.72;100.00
38197;BME280;26543;51.976;4.616;2023-02-04T08:45:08;53109.22;;;-140.72;100.00
38197;BME280;26543;51.976;4.616;2023-02-04T08:47:33;53119.38;;;-140.72;100.00
38197;BME280;26543;51.976;4.616;2023-02-04T08:49:58;53105.19;;;-140.72;100.00
38197;BME280;26543;51.976;4.616;2023-02-04T08:52:24;53111.25;;;-140.72;100.00
38197;BME280;26543;51.976;4.616;2023-02-04T08:54:49;53084.88;;;-140.72;100.00
38197;BME280;26543;51.976;4.616;2023-02-04T08:57:14;53145.75;;;-140.72;100.00
38197;BME280;26543;51.976;4.616;2023-02-04T08:59:40;53121.41;;;-140.72;100.00
38197;BME280;26543;51.976;4.616;2023-02-04T09:02:05;53109.22;;;-140.72;100.00
38197;BME280;26543;51.976;4.616;2023-02-04T09:04:31;53117.34;;;-140.72;100.00
38197;BME280;26543;51.976;4.616;2023-02-04T09:06:56;53084.88;;;-140.72;100.00
38197;BME280;26543;51.976;4.616;2023-02-04T09:09:22;53105.19;;;-140.72;100.00
38197;BME280;26543;51.976;4.616;2023-02-04T09:11:47;53109.22;;;-140.72;100.00
38197;BME280;26543;51.976;4.616;2023-02-04T09:14:12;53105.19;;;-140.72;100.00
38197;BME280;26543;51.976;4.616;2023-02-04T09:16:38;53072.69;;;-140.72;100.00
38197;BME280;26543;51.976;4.616;2023-02-04T09:19:04;53125.47;;;-140.72;100.00
38197;BME280;26543;51.976;4.616;2023-02-04T09:21:30;53056.47;;;-140.72;100.00
38197;BME280;26543;51.976;4.616;2023-02-04T09:23:59;53090.97;;;-140.72;100.00
38197;BME280;26543;51.976;4.616;2023-02-04T09:26:24;53105.19;;;-140.72;100.00
38197;BME280;26543;51.976;4.616;2023-02-04T09:28:50;53068.66;;;-140.72;100.00
38197;BME280;26543;51.976;4.616;2023-02-04T09:31:15;53070.69;;;-140.72;100.00
38197;BME280;26543;51.976;4.616;2023-02-04T09:33:41;53088.94;;;-140.72;100.00
38197;BME280;26543;51.976;4.616;2023-02-04T09:36:06;53105.19;;;-140.72;100.00
38197;BME280;26543;51.976;4.616;2023-02-04T09:38:32;53117.34;;;-140.72;100.00
38197;BME280;26543;51.976;4.616;2023-02-04T09:41:00;53072.69;;;-140.72;100.00
38197;BME280;26543;51.976;4.616;2023-02-04T09:43:29;53072.69;;;-140.72;100.00
38197;BME280;26543;51.976;4.616;2023-02-04T09:45:56;53088.94;;;-140.72;100.00
38197;BME280;26543;51.976;4.616;2023-02-04T09:48:23;53095.03;;;-140.72;100.00
38197;BME280;26543;51.976;4.616;2023-02-04T09:50:52;53042.25;;;-140.72;100.00
38197;BME280;26543;51.976;4.616;2023-02-04T09:53:24;53072.69;;;-140.72;100.00
38197;BME280;26543;51.976;4.616;2023-02-04T09:55:50;53074.72;;;-140.72;100.00
38197;BME280;26543;51.976;4.616;2023-02-04T09:58:19;53048.34;;;-140.72;100.00
38197;BME280;26543;51.976;4.616;2023-02-04T10:00:47;53088.94;;;-140.72;100.00
38197;BME280;26543;51.976;4.616;2023-02-04T10:03:18;53080.81;;;-140.72;100.00
38197;BME280;26543;51.976;4.616;2023-02-04T10:05:45;53060.53;;;-140.72;100.00
38197;BME280;26543;51.976;4.616;2023-02-04T10:08:16;53056.47;;;-140.72;100.00
38197;BME280;26543;51.976;4.616;2023-02-04T10:10:43;53056.47;;;-140.72;100.00
38197;BME280;26543;51.976;4.616;2023-02-04T10:13:16;53078.78;;;-140.72;100.00
38197;BME280;26543;51.976;4.616;2023-02-04T10:15:45;53054.44;;;-140.72;100.00
38197;BME280;26543;51.976;4.616;2023-02-04T10:18:18;53044.28;;;-140.72;100.00
38197;BME280;26543;51.976;4.616;2023-02-04T10:20:56;53028.06;;;-140.72;100.00
38197;BME280;26543;51.976;4.616;2023-02-04T10:23:24;53009.78;;;-140.72;100.00
38197;BME280;26543;51.976;4.616;2023-02-04T10:25:50;53040.22;;;-140.72;100.00
38197;BME280;26543;51.976;4.616;2023-02-04T10:28:15;53062.56;;;-140.72;100.00
38197;BME280;26543;51.976;4.616;2023-02-04T10:30:42;53005.72;;;-140.72;100.00
38197;BME280;26543;51.976;4.616;2023-02-04T10:33:23;53036.16;;;-140.72;100.00
38197;BME280;26543;51.976;4.616;2023-02-04T10:35:51;53070.69;;;-140.72;100.00
38197;BME280;26543;51.976;4.616;2023-02-04T10:38:18;53044.28;;;-140.72;100.00
38197;BME280;26543;51.976;4.616;2023-02-04T10:40:44;53054.44;;;-140.72;100.00
38197;BME280;26543;51.976;4.616;2023-02-04T10:43:20;53034.16;;;-140.72;100.00
38197;BME280;26543;51.976;4.616;2023-02-04T10:46:02;53064.59;;;-140.72;100.00
38197;BME280;26543;51.976;4.616;2023-02-04T10:48:28;53032.13;;;-140.72;100.00
38197;BME280;26543;51.976;4.616;2023-02-04T10:50:57;53066.63;;;-140.72;100.00
38197;BME280;26543;51.976;4.616;2023-02-04T10:53:24;53034.16;;;-140.72;100.00
38197;BME280;26543;51.976;4.616;2023-02-04T10:56:19;52999.66;;;-140.72;100.00
38197;BME280;26543;51.976;4.616;2023-02-04T10:58:45;53005.72;;;-140.72;100.00
38197;BME280;26543;51.976;4.616;2023-02-04T11:01:13;53038.19;;;-140.72;100.00
38197;BME280;26543;51.976;4.616;2023-02-04T11:03:39;53003.69;;;-140.72;100.00
38197;BME280;26543;51.976;4.616;2023-02-04T11:06:19;53036.16;;;-140.72;100.00
38197;BME280;26543;51.976;4.616;2023-02-04T11:08:45;53001.66;;;-140.72;100.00
38197;BME280;26543;51.976;4.616;2023-02-04T11:11:23;53042.25;;;-140.72;100.00
38197;BME280;26543;51.976;4.616;2023-02-04T11:19:00;53032.13;;;-140.72;100.00
38197;BME280;26543;51.976;4.616;2023-02-04T11:26:43;53042.25;;;-140.72;100.00
38197;BME280;26543;51.976;4.616;2023-02-04T11:29:33;53040.22;;;-140.72;100.00
38197;BME280;26543;51.976;4.616;2023-02-04T11:34:51;53084.88;;;-140.72;100.00
38197;BME280;26543;51.976;4.616;2023-02-04T11:37:32;53064.59;;;-140.72;100.00
38197;BME280;26543;51.976;4.616;2023-02-04T11:40:00;53064.59;;;-140.72;100.00
38197;BME280;26543;51.976;4.616;2023-02-04T11:42:31;53054.44;;;-140.72;100.00
38197;BME280;26543;51.976;4.616;2023-02-04T11:45:19;53056.47;;;-140.72;100.00
38197;BME280;26543;51.976;4.616;2023-02-04T11:47:45;53038.19;;;-140.72;100.00
38197;BME280;26543;51.976;4.616;2023-02-04T11:52:55;53052.41;;;-140.72;100.00
38197;BME280;26543;51.976;4.616;2023-02-04T11:55:21;53030.09;;;-140.72;100.00
38197;BME280;26543;51.976;4.616;2023-02-04T11:57:50;53040.22;;;-140.72;100.00
38197;BME280;26543;51.976;4.616;2023-02-04T12:00:29;53042.25;;;-140.72;100.00
38197;BME280;26543;51.976;4.616;2023-02-04T12:02:59;53044.28;;;-140.72;100.00
38197;BME280;26543;51.976;4.616;2023-02-04T12:05:39;53032.13;;;-140.72;100.00
38197;BME280;26543;51.976;4.616;2023-02-04T12:10:36;53042.25;;;-140.72;100.00
38197;BME280;26543;51.976;4.616;2023-02-04T12:13:11;53048.34;;;-140.72;100.00
38197;BME280;26543;51.976;4.616;2023-02-04T12:15:37;53019.94;;;-140.72;100.00
38197;BME280;26543;51.976;4.616;2023-02-04T12:18:07;53028.06;;;-140.72;100.00
38197;BME280;26543;51.976;4.616;2023-02-04T12:20:34;53015.88;;;-140.72;100.00
38197;BME280;26543;51.976;4.616;2023-02-04T12:22:59;53026.03;;;-140.72;100.00
38197;BME280;26543;51.976;4.616;2023-02-04T12:25:25;53052.41;;;-140.72;100.00
38197;BME280;26543;51.976;4.616;2023-02-04T12:27:55;53046.31;;;-140.72;100.00
38197;BME280;26543;51.976;4.616;2023-02-04T12:30:22;53058.50;;;-140.72;100.00
38197;BME280;26543;51.976;4.616;2023-02-04T12:32:47;53040.22;;;-140.72;100.00
38197;BME280;26543;51.976;4.616;2023-02-04T12:35:13;53064.59;;;-140.72;100.00
38197;BME280;26543;51.976;4.616;2023-02-04T12:37:39;53044.28;;;-140.72;100.00
38197;BME280;26543;51.976;4.616;2023-02-04T12:40:05;53032.13;;;-140.72;100.00
38197;BME280;26543;51.976;4.616;2023-02-04T12:42:30;53056.47;;;-140.72;100.00
38197;BME280;26543;51.976;4.616;2023-02-04T12:44:56;53032.13;;;-140.72;100.00
38197;BME280;26543;51.976;4.616;2023-02-04T12:47:21;53066.63;;;-140.72;100.00